sensor_id;sensor_type;location;lat;lon;timestamp;P1;durP1;ratioP1;P2;durP2;ratioP2
55312;SDS011;46892;45.668;11.756;2023-02-03T00:01:52;173.17;;;88.87;;
55312;SDS011;46892;45.668;11.756;2023-02-03T00:04:17;165.53;;;85.23;;
55312;SDS011;46892;45.668;11.756;2023-02-03T00:06:43;153.47;;;80.80;;
55312;SDS011;46892;45.668;11.756;2023-02-03T00:09:09;159.23;;;81.37;;
55312;SDS011;46892;45.668;11.756;2023-02-03T00:11:35;134.23;;;71.90;;
55312;SDS011;46892;45.668;11.756;2023-02-03T00:14:01;157.77;;;81.73;;
55312;SDS011;46892;45.668;11.756;2023-02-03T00:16:29;155.93;;;80.23;;
55312;SDS011;46892;45.668;11.756;2023-02-03T00:18:55;159.80;;;78.47;;
55312;SDS011;46892;45.668;11.756;2023-02-03T00:21:20;188.73;;;90.20;;
55312;SDS011;46892;45.668;11.756;2023-02-03T00:23:46;174.57;;;84.43;;
55312;SDS011;46892;45.668;11.756;2023-02-03T00:26:13;167.77;;;86.73;;
55312;SDS011;46892;45.668;11.756;2023-02-03T00:28:40;188.73;;;92.27;;
55312;SDS011;46892;45.668;11.756;2023-02-03T00:31:13;180.27;;;87.33;;
55312;SDS011;46892;45.668;11.756;2023-02-03T00:33:40;167.43;;;84.90;;
55312;SDS011;46892;45.668;11.756;2023-02-03T00:36:05;161.47;;;80.33;;
55312;SDS011;46892;45.668;11.756;2023-02-03T00:38:31;157.00;;;78.77;;
55312;SDS011;46892;45.668;11.756;2023-02-03T00:40:57;169.87;;;82.57;;
55312;SDS011;46892;45.668;11.756;2023-02-03T00:43:23;179.57;;;85.57;;
55312;SDS011;46892;45.668;11.756;2023-02-03T00:45:48;161.37;;;81.13;;
55312;SDS011;46892;45.668;11.756;2023-02-03T00:48:14;182.73;;;89.23;;
55312;SDS011;46892;45.668;11.756;2023-02-03T00:50:40;192.03;;;92.10;;
55312;SDS011;46892;45.668;11.756;2023-02-03T00:53:05;178.77;;;85.83;;
55312;SDS011;46892;45.668;11.756;2023-02-03T00:55:31;183.77;;;89.17;;
55312;SDS011;46892;45.668;11.756;2023-02-03T00:57:57;191.90;;;90.77;;
55312;SDS011;46892;45.668;11.756;2023-02-03T01:00:23;178.10;;;86.37;;
55312;SDS011;46892;45.668;11.756;2023-02-03T01:02:48;192.87;;;91.30;;
55312;SDS011;46892;45.668;11.756;2023-02-03T01:05:14;171.60;;;87.20;;
55312;SDS011;46892;45.668;11.756;2023-02-03T01:07:40;186.43;;;89.03;;
55312;SDS011;46892;45.668;11.756;2023-02-03T01:10:05;168.70;;;86.17;;
55312;SDS011;46892;45.668;11.756;2023-02-03T01:12:32;167.60;;;80.23;;
55312;SDS011;46892;45.668;11.756;2023-02-03T01:14:57;177.07;;;84.77;;
55312;SDS011;46892;45.668;11.756;2023-02-03T01:17:23;177.13;;;86.60;;
55312;SDS011;46892;45.668;11.756;2023-02-03T01:19:49;186.13;;;88.27;;
55312;SDS011;46892;45.668;11.756;2023-02-03T01:22:17;193.67;;;91.60;;
55312;SDS011;46892;45.668;11.756;2023-02-03T01:24:42;207.50;;;96.27;;
55312;SDS011;46892;45.668;11.756;2023-02-03T01:27:08;205.30;;;95.27;;
55312;SDS011;46892;45.668;11.756;2023-02-03T01:29:34;193.43;;;91.53;;
55312;SDS011;46892;45.668;11.756;2023-02-03T01:32:00;185.17;;;87.10;;
55312;SDS011;46892;45.668;11.756;2023-02-03T01:34:25;166.33;;;81.33;;
55312;SDS011;46892;45.668;11.756;2023-02-03T01:36:51;167.13;;;85.20;;
55312;SDS011;46892;45.668;11.756;2023-02-03T01:39:17;174.50;;;86.03;;
55312;SDS011;46892;45.668;11.756;2023-02-03T01:41:43;185.07;;;88.43;;
55312;SDS011;46892;45.668;11.756;2023-02-03T01:46:56;170.90;;;80.83;;
55312;SDS011;46892;45.668;11.756;2023-02-03T01:49:23;174.07;;;82.27;;
55312;SDS011;46892;45.668;11.756;2023-02-03T01:51:53;168.43;;;81.73;;
55312;SDS011;46892;45.668;11.756;2023-02-03T01:54:24;164.03;;;79.87;;
55312;SDS011;46892;45.668;11.756;2023-02-03T01:56:54;178.83;;;84.30;;
55312;SDS011;46892;45.668;11.756;2023-02-03T01:59:25;200.40;;;89.70;;
55312;SDS011;46892;45.668;11.756;2023-02-03T02:01:53;200.43;;;90.67;;
55312;SDS011;46892;45.668;11.756;2023-02-03T02:04:20;201.13;;;91.23;;
55312;SDS011;46892;45.668;11.756;2023-02-03T02:06:55;184.03;;;84.97;;
55312;SDS011;46892;45.668;11.756;2023-02-03T02:09:22;200.40;;;90.43;;
55312;SDS011;46892;45.668;11.756;2023-02-03T02:11:49;185.13;;;86.93;;
55312;SDS011;46892;45.668;11.756;2023-02-03T02:14:14;200.53;;;90.20;;
55312;SDS011;46892;45.668;11.756;2023-02-03T02:17:03;196.80;;;90.33;;
55312;SDS011;46892;45.668;11.756;2023-02-03T02:28:19;188.43;;;84.45;;
55312;SDS011;46892;45.668;11.756;2023-02-03T02:32:57;193.73;;;87.67;;
55312;SDS011;46892;45.668;11.756;2023-02-03T02:38:28;174.60;;;81.73;;
55312;SDS011;46892;45.668;11.756;2023-02-03T02:41:22;154.17;;;73.30;;
55312;SDS011;46892;45.668;11.756;2023-02-03T02:44:15;154.00;;;74.63;;
55312;SDS011;46892;45.668;11.756;2023-02-03T02:46:49;157.43;;;75.60;;
55312;SDS011;46892;45.668;11.756;2023-02-03T02:51:57;163.30;;;78.23;;
55312;SDS011;46892;45.668;11.756;2023-02-03T02:54:27;183.60;;;83.78;;
55312;SDS011;46892;45.668;11.756;2023-02-03T02:56:55;165.40;;;79.73;;
55312;SDS011;46892;45.668;11.756;2023-02-03T02:59:25;176.85;;;81.45;;
55312;SDS011;46892;45.668;11.756;2023-02-03T03:01:51;187.23;;;83.43;;
55312;SDS011;46892;45.668;11.756;2023-02-03T03:04:18;198.90;;;87.63;;
55312;SDS011;46892;45.668;11.756;2023-02-03T03:06:49;187.80;;;83.30;;
55312;SDS011;46892;45.668;11.756;2023-02-03T03:11:49;169.20;;;78.03;;
55312;SDS011;46892;45.668;11.756;2023-02-03T03:14:18;173.90;;;79.73;;
55312;SDS011;46892;45.668;11.756;2023-02-03T03:16:51;166.33;;;78.13;;
55312;SDS011;46892;45.668;11.756;2023-02-03T03:19:23;160.87;;;76.60;;
55312;SDS011;46892;45.668;11.756;2023-02-03T03:21:56;173.67;;;79.30;;
55312;SDS011;46892;45.668;11.756;2023-02-03T03:24:38;163.73;;;77.07;;
55312;SDS011;46892;45.668;11.756;2023-02-03T03:27:17;164.40;;;78.00;;
55312;SDS011;46892;45.668;11.756;2023-02-03T03:30:05;154.97;;;74.07;;
55312;SDS011;46892;45.668;11.756;2023-02-03T03:32:35;158.13;;;74.37;;
55312;SDS011;46892;45.668;11.756;2023-02-03T03:35:03;162.23;;;75.13;;
55312;SDS011;46892;45.668;11.756;2023-02-03T03:37:43;163.53;;;78.50;;
55312;SDS011;46892;45.668;11.756;2023-02-03T03:40:21;169.70;;;78.93;;
55312;SDS011;46892;45.668;11.756;2023-02-03T03:42:56;177.93;;;82.07;;
55312;SDS011;46892;45.668;11.756;2023-02-03T03:48:08;169.00;;;81.10;;
55312;SDS011;46892;45.668;11.756;2023-02-03T03:50:40;165.57;;;79.90;;
55312;SDS011;46892;45.668;11.756;2023-02-03T03:53:10;167.93;;;78.57;;
55312;SDS011;46892;45.668;11.756;2023-02-03T03:55:39;160.97;;;80.13;;
55312;SDS011;46892;45.668;11.756;2023-02-03T03:58:08;156.10;;;76.23;;
55312;SDS011;46892;45.668;11.756;2023-02-03T04:00:38;147.95;;;73.93;;
55312;SDS011;46892;45.668;11.756;2023-02-03T04:03:06;162.13;;;79.87;;
55312;SDS011;46892;45.668;11.756;2023-02-03T04:05:38;153.10;;;74.63;;
55312;SDS011;46892;45.668;11.756;2023-02-03T04:08:05;155.07;;;76.50;;
55312;SDS011;46892;45.668;11.756;2023-02-03T04:10:32;160.70;;;77.50;;
55312;SDS011;46892;45.668;11.756;2023-02-03T04:13:00;155.07;;;74.13;;
55312;SDS011;46892;45.668;11.756;2023-02-03T04:15:27;151.30;;;75.33;;
55312;SDS011;46892;45.668;11.756;2023-02-03T04:17:54;163.43;;;73.67;;
55312;SDS011;46892;45.668;11.756;2023-02-03T04:20:21;167.00;;;78.03;;
55312;SDS011;46892;45.668;11.756;2023-02-03T04:22:47;167.67;;;78.20;;
55312;SDS011;46892;45.668;11.756;2023-02-03T04:25:13;158.03;;;75.90;;
55312;SDS011;46892;45.668;11.756;2023-02-03T04:27:38;152.37;;;77.33;;
55312;SDS011;46892;45.668;11.756;2023-02-03T04:30:04;160.50;;;75.63;;
55312;SDS011;46892;45.668;11.756;2023-02-03T04:32:31;152.70;;;72.67;;
55312;SDS011;46892;45.668;11.756;2023-02-03T04:34:59;161.43;;;73.83;;
55312;SDS011;46892;45.668;11.756;2023-02-03T04:37:25;167.67;;;76.83;;
55312;SDS011;46892;45.668;11.756;2023-02-03T04:39:51;164.13;;;78.37;;
55312;SDS011;46892;45.668;11.756;2023-02-03T04:42:17;183.00;;;83.53;;
55312;SDS011;46892;45.668;11.756;2023-02-03T04:44:43;213.97;;;109.10;;
55312;SDS011;46892;45.668;11.756;2023-02-03T04:47:09;184.00;;;82.40;;
55312;SDS011;46892;45.668;11.756;2023-02-03T04:49:34;187.60;;;82.67;;
55312;SDS011;46892;45.668;11.756;2023-02-03T04:52:00;188.10;;;81.20;;
55312;SDS011;46892;45.668;11.756;2023-02-03T04:54:26;169.33;;;79.37;;
55312;SDS011;46892;45.668;11.756;2023-02-03T04:56:51;163.83;;;75.37;;
55312;SDS011;46892;45.668;11.756;2023-02-03T04:59:17;170.83;;;78.40;;
55312;SDS011;46892;45.668;11.756;2023-02-03T05:01:42;172.97;;;80.03;;
55312;SDS011;46892;45.668;11.756;2023-02-03T05:04:08;174.87;;;80.97;;
55312;SDS011;46892;45.668;11.756;2023-02-03T05:06:34;186.17;;;81.77;;
55312;SDS011;46892;45.668;11.756;2023-02-03T05:09:00;194.67;;;85.57;;
55312;SDS011;46892;45.668;11.756;2023-02-03T05:11:25;180.90;;;84.07;;
55312;SDS011;46892;45.668;11.756;2023-02-03T05:13:51;189.07;;;84.83;;
55312;SDS011;46892;45.668;11.756;2023-02-03T05:16:18;188.87;;;85.13;;
55312;SDS011;46892;45.668;11.756;2023-02-03T05:18:43;179.43;;;82.77;;
55312;SDS011;46892;45.668;11.756;2023-02-03T05:21:09;171.87;;;79.37;;
55312;SDS011;46892;45.668;11.756;2023-02-03T05:23:34;168.47;;;77.07;;
55312;SDS011;46892;45.668;11.756;2023-02-03T05:26:00;157.93;;;74.93;;
55312;SDS011;46892;45.668;11.756;2023-02-03T05:28:26;161.87;;;77.10;;
55312;SDS011;46892;45.668;11.756;2023-02-03T05:30:51;144.93;;;70.00;;
55312;SDS011;46892;45.668;11.756;2023-02-03T05:33:17;177.77;;;82.90;;
55312;SDS011;46892;45.668;11.756;2023-02-03T05:35:43;173.40;;;80.63;;
55312;SDS011;46892;45.668;11.756;2023-02-03T05:38:08;177.43;;;81.80;;
55312;SDS011;46892;45.668;11.756;2023-02-03T05:40:34;180.73;;;80.17;;
55312;SDS011;46892;45.668;11.756;2023-02-03T05:43:18;165.47;;;77.17;;
55312;SDS011;46892;45.668;11.756;2023-02-03T05:45:44;180.17;;;79.20;;
55312;SDS011;46892;45.668;11.756;2023-02-03T05:48:10;170.07;;;78.50;;
55312;SDS011;46892;45.668;11.756;2023-02-03T05:50:36;184.33;;;82.33;;
55312;SDS011;46892;45.668;11.756;2023-02-03T05:53:03;199.47;;;87.17;;
55312;SDS011;46892;45.668;11.756;2023-02-03T05:55:32;173.53;;;79.77;;
55312;SDS011;46892;45.668;11.756;2023-02-03T05:57:58;175.87;;;80.17;;
55312;SDS011;46892;45.668;11.756;2023-02-03T06:00:26;161.67;;;75.47;;
55312;SDS011;46892;45.668;11.756;2023-02-03T06:02:57;173.07;;;77.23;;
55312;SDS011;46892;45.668;11.756;2023-02-03T06:05:24;164.80;;;74.77;;
55312;SDS011;46892;45.668;11.756;2023-02-03T06:07:50;167.33;;;76.60;;
55312;SDS011;46892;45.668;11.756;2023-02-03T06:10:16;165.43;;;74.30;;
55312;SDS011;46892;45.668;11.756;2023-02-03T06:12:42;178.60;;;82.13;;
55312;SDS011;46892;45.668;11.756;2023-02-03T06:15:09;187.70;;;85.23;;
55312;SDS011;46892;45.668;11.756;2023-02-03T06:17:34;174.07;;;81.47;;
55312;SDS011;46892;45.668;11.756;2023-02-03T06:20:04;174.80;;;82.20;;
55312;SDS011;46892;45.668;11.756;2023-02-03T06:22:32;163.63;;;77.20;;
55312;SDS011;46892;45.668;11.756;2023-02-03T06:24:58;177.27;;;79.17;;
55312;SDS011;46892;45.668;11.756;2023-02-03T06:27:24;178.40;;;81.20;;
55312;SDS011;46892;45.668;11.756;2023-02-03T06:29:49;161.00;;;77.60;;
55312;SDS011;46892;45.668;11.756;2023-02-03T06:32:15;169.63;;;77.30;;
55312;SDS011;46892;45.668;11.756;2023-02-03T06:34:41;178.03;;;82.77;;
55312;SDS011;46892;45.668;11.756;2023-02-03T06:37:06;171.77;;;76.27;;
55312;SDS011;46892;45.668;11.756;2023-02-03T06:39:32;176.53;;;82.33;;
55312;SDS011;46892;45.668;11.756;2023-02-03T06:41:57;181.00;;;83.47;;
55312;SDS011;46892;45.668;11.756;2023-02-03T06:44:23;220.50;;;96.80;;
55312;SDS011;46892;45.668;11.756;2023-02-03T06:46:49;228.93;;;95.83;;
55312;SDS011;46892;45.668;11.756;2023-02-03T06:49:17;280.27;;;115.50;;
55312;SDS011;46892;45.668;11.756;2023-02-03T06:51:44;260.10;;;107.87;;
55312;SDS011;46892;45.668;11.756;2023-02-03T06:54:10;243.00;;;98.63;;
55312;SDS011;46892;45.668;11.756;2023-02-03T06:56:36;217.80;;;95.40;;
55312;SDS011;46892;45.668;11.756;2023-02-03T06:59:03;216.80;;;94.90;;
55312;SDS011;46892;45.668;11.756;2023-02-03T07:01:29;205.70;;;92.73;;
55312;SDS011;46892;45.668;11.756;2023-02-03T07:03:55;195.80;;;89.97;;
55312;SDS011;46892;45.668;11.756;2023-02-03T07:06:25;208.23;;;92.93;;
55312;SDS011;46892;45.668;11.756;2023-02-03T07:08:56;211.68;;;93.10;;
55312;SDS011;46892;45.668;11.756;2023-02-03T07:11:22;216.07;;;92.77;;
55312;SDS011;46892;45.668;11.756;2023-02-03T07:13:49;195.73;;;89.10;;
55312;SDS011;46892;45.668;11.756;2023-02-03T07:16:15;184.03;;;91.03;;
55312;SDS011;46892;45.668;11.756;2023-02-03T07:18:41;188.90;;;90.60;;
55312;SDS011;46892;45.668;11.756;2023-02-03T07:21:07;169.63;;;81.77;;
55312;SDS011;46892;45.668;11.756;2023-02-03T07:23:33;188.70;;;87.33;;
55312;SDS011;46892;45.668;11.756;2023-02-03T07:25:59;209.10;;;103.90;;
55312;SDS011;46892;45.668;11.756;2023-02-03T07:28:34;211.45;;;98.82;;
55312;SDS011;46892;45.668;11.756;2023-02-03T07:31:01;221.27;;;111.87;;
55312;SDS011;46892;45.668;11.756;2023-02-03T07:33:32;199.17;;;96.57;;
55312;SDS011;46892;45.668;11.756;2023-02-03T07:35:58;205.77;;;97.70;;
55312;SDS011;46892;45.668;11.756;2023-02-03T07:38:25;185.30;;;87.70;;
55312;SDS011;46892;45.668;11.756;2023-02-03T07:40:52;187.67;;;91.30;;
55312;SDS011;46892;45.668;11.756;2023-02-03T07:43:18;190.03;;;88.13;;
55312;SDS011;46892;45.668;11.756;2023-02-03T07:45:44;175.20;;;88.23;;
55312;SDS011;46892;45.668;11.756;2023-02-03T07:48:10;172.13;;;85.47;;
55312;SDS011;46892;45.668;11.756;2023-02-03T07:50:36;183.53;;;90.27;;
55312;SDS011;46892;45.668;11.756;2023-02-03T07:53:02;177.40;;;90.00;;
55312;SDS011;46892;45.668;11.756;2023-02-03T07:55:28;172.40;;;85.57;;
55312;SDS011;46892;45.668;11.756;2023-02-03T07:57:57;168.37;;;83.57;;
55312;SDS011;46892;45.668;11.756;2023-02-03T08:00:23;167.03;;;83.17;;
55312;SDS011;46892;45.668;11.756;2023-02-03T08:02:49;168.17;;;85.00;;
55312;SDS011;46892;45.668;11.756;2023-02-03T08:05:16;170.70;;;87.30;;
55312;SDS011;46892;45.668;11.756;2023-02-03T08:07:42;189.27;;;99.13;;
55312;SDS011;46892;45.668;11.756;2023-02-03T08:10:09;200.80;;;95.93;;
55312;SDS011;46892;45.668;11.756;2023-02-03T08:12:36;169.03;;;88.03;;
55312;SDS011;46892;45.668;11.756;2023-02-03T08:15:02;194.47;;;94.27;;
55312;SDS011;46892;45.668;11.756;2023-02-03T08:17:28;173.67;;;87.10;;
55312;SDS011;46892;45.668;11.756;2023-02-03T08:19:54;181.27;;;88.23;;
55312;SDS011;46892;45.668;11.756;2023-02-03T08:22:20;176.93;;;85.60;;
55312;SDS011;46892;45.668;11.756;2023-02-03T08:24:45;167.10;;;81.67;;
55312;SDS011;46892;45.668;11.756;2023-02-03T08:27:12;170.13;;;82.43;;
55312;SDS011;46892;45.668;11.756;2023-02-03T08:29:45;163.87;;;82.60;;
55312;SDS011;46892;45.668;11.756;2023-02-03T08:32:12;169.20;;;83.30;;
55312;SDS011;46892;45.668;11.756;2023-02-03T08:34:39;173.67;;;77.73;;
55312;SDS011;46892;45.668;11.756;2023-02-03T08:37:05;165.40;;;80.40;;
55312;SDS011;46892;45.668;11.756;2023-02-03T08:39:32;160.10;;;80.57;;
55312;SDS011;46892;45.668;11.756;2023-02-03T08:41:59;168.90;;;82.50;;
55312;SDS011;46892;45.668;11.756;2023-02-03T08:44:25;165.50;;;79.63;;
55312;SDS011;46892;45.668;11.756;2023-02-03T08:46:52;167.63;;;81.20;;
55312;SDS011;46892;45.668;11.756;2023-02-03T08:49:18;166.90;;;82.50;;
55312;SDS011;46892;45.668;11.756;2023-02-03T08:51:45;172.03;;;80.80;;
55312;SDS011;46892;45.668;11.756;2023-02-03T08:54:13;161.60;;;80.67;;
55312;SDS011;46892;45.668;11.756;2023-02-03T08:56:39;167.83;;;81.77;;
55312;SDS011;46892;45.668;11.756;2023-02-03T08:59:05;164.23;;;81.40;;
55312;SDS011;46892;45.668;11.756;2023-02-03T09:01:31;159.50;;;79.43;;
55312;SDS011;46892;45.668;11.756;2023-02-03T09:03:57;159.63;;;77.97;;
55312;SDS011;46892;45.668;11.756;2023-02-03T09:06:26;156.30;;;76.73;;
55312;SDS011;46892;45.668;11.756;2023-02-03T09:08:53;157.73;;;78.80;;
55312;SDS011;46892;45.668;11.756;2023-02-03T09:11:19;150.30;;;77.80;;
55312;SDS011;46892;45.668;11.756;2023-02-03T09:13:45;144.63;;;74.70;;
55312;SDS011;46892;45.668;11.756;2023-02-03T09:16:13;160.57;;;76.07;;
55312;SDS011;46892;45.668;11.756;2023-02-03T09:18:43;162.68;;;75.60;;
55312;SDS011;46892;45.668;11.756;2023-02-03T09:21:10;141.97;;;72.90;;
55312;SDS011;46892;45.668;11.756;2023-02-03T09:23:37;136.37;;;70.00;;
55312;SDS011;46892;45.668;11.756;2023-02-03T09:26:04;131.10;;;69.53;;
55312;SDS011;46892;45.668;11.756;2023-02-03T09:28:31;129.77;;;69.33;;
55312;SDS011;46892;45.668;11.756;2023-02-03T09:31:01;131.10;;;66.67;;
55312;SDS011;46892;45.668;11.756;2023-02-03T09:33:27;123.97;;;65.63;;
55312;SDS011;46892;45.668;11.756;2023-02-03T09:35:54;124.53;;;66.93;;
55312;SDS011;46892;45.668;11.756;2023-02-03T09:38:21;120.27;;;65.50;;
55312;SDS011;46892;45.668;11.756;2023-02-03T09:40:48;122.87;;;65.47;;
55312;SDS011;46892;45.668;11.756;2023-02-03T09:43:31;116.93;;;64.13;;
55312;SDS011;46892;45.668;11.756;2023-02-03T09:46:17;110.10;;;58.77;;
55312;SDS011;46892;45.668;11.756;2023-02-03T09:48:48;109.03;;;59.27;;
55312;SDS011;46892;45.668;11.756;2023-02-03T09:51:22;108.47;;;58.13;;
55312;SDS011;46892;45.668;11.756;2023-02-03T09:54:01;109.30;;;60.57;;
55312;SDS011;46892;45.668;11.756;2023-02-03T09:56:35;106.57;;;58.97;;
55312;SDS011;46892;45.668;11.756;2023-02-03T09:59:02;108.10;;;59.03;;
55312;SDS011;46892;45.668;11.756;2023-02-03T10:01:31;98.63;;;56.57;;
55312;SDS011;46892;45.668;11.756;2023-02-03T10:04:10;101.70;;;56.90;;
55312;SDS011;46892;45.668;11.756;2023-02-03T10:06:55;93.50;;;54.13;;
55312;SDS011;46892;45.668;11.756;2023-02-03T10:12:36;100.10;;;56.17;;
55312;SDS011;46892;45.668;11.756;2023-02-03T10:17:52;99.03;;;55.90;;
55312;SDS011;46892;45.668;11.756;2023-02-03T10:20:33;95.93;;;53.40;;
55312;SDS011;46892;45.668;11.756;2023-02-03T10:23:06;97.47;;;54.20;;
55312;SDS011;46892;45.668;11.756;2023-02-03T10:25:41;87.73;;;51.97;;
55312;SDS011;46892;45.668;11.756;2023-02-03T10:28:19;90.73;;;52.13;;
55312;SDS011;46892;45.668;11.756;2023-02-03T10:30:48;91.53;;;52.97;;
55312;SDS011;46892;45.668;11.756;2023-02-03T10:33:17;81.47;;;46.33;;
55312;SDS011;46892;45.668;11.756;2023-02-03T10:35:51;75.37;;;43.63;;
55312;SDS011;46892;45.668;11.756;2023-02-03T10:39:03;73.60;;;43.23;;
55312;SDS011;46892;45.668;11.756;2023-02-03T10:41:23;66.47;;;40.57;;
55312;SDS011;46892;45.668;11.756;2023-02-03T10:43:50;71.37;;;42.97;;
55312;SDS011;46892;45.668;11.756;2023-02-03T10:48:44;69.27;;;41.50;;
55312;SDS011;46892;45.668;11.756;2023-02-03T10:51:20;72.27;;;42.27;;
55312;SDS011;46892;45.668;11.756;2023-02-03T10:53:51;60.60;;;38.47;;
55312;SDS011;46892;45.668;11.756;2023-02-03T10:56:38;60.47;;;37.17;;
55312;SDS011;46892;45.668;11.756;2023-02-03T10:59:04;61.40;;;37.50;;
55312;SDS011;46892;45.668;11.756;2023-02-03T11:01:38;59.90;;;38.13;;
55312;SDS011;46892;45.668;11.756;2023-02-03T11:04:08;59.67;;;37.50;;
55312;SDS011;46892;45.668;11.756;2023-02-03T11:06:59;64.90;;;39.37;;
55312;SDS011;46892;45.668;11.756;2023-02-03T11:12:06;63.90;;;39.40;;
55312;SDS011;46892;45.668;11.756;2023-02-03T11:14:48;64.50;;;40.03;;
55312;SDS011;46892;45.668;11.756;2023-02-03T11:19:45;69.17;;;40.57;;
55312;SDS011;46892;45.668;11.756;2023-02-03T11:22:13;66.80;;;40.80;;
55312;SDS011;46892;45.668;11.756;2023-02-03T11:25:22;73.23;;;44.80;;
55312;SDS011;46892;45.668;11.756;2023-02-03T11:27:53;74.60;;;43.50;;
55312;SDS011;46892;45.668;11.756;2023-02-03T11:30:25;73.57;;;45.27;;
55312;SDS011;46892;45.668;11.756;2023-02-03T11:32:55;79.90;;;47.53;;
55312;SDS011;46892;45.668;11.756;2023-02-03T11:35:27;80.18;;;48.55;;
55312;SDS011;46892;45.668;11.756;2023-02-03T11:37:56;78.60;;;47.57;;
55312;SDS011;46892;45.668;11.756;2023-02-03T11:40:26;82.47;;;49.67;;
55312;SDS011;46892;45.668;11.756;2023-02-03T11:45:38;82.63;;;47.87;;
55312;SDS011;46892;45.668;11.756;2023-02-03T11:51:09;85.57;;;50.17;;
55312;SDS011;46892;45.668;11.756;2023-02-03T11:53:44;81.23;;;48.40;;
55312;SDS011;46892;45.668;11.756;2023-02-03T12:04:57;90.53;;;52.47;;
55312;SDS011;46892;45.668;11.756;2023-02-03T12:23:36;97.03;;;54.73;;
55312;SDS011;46892;45.668;11.756;2023-02-03T12:29:28;90.03;;;53.73;;
55312;SDS011;46892;45.668;11.756;2023-02-03T12:37:41;85.23;;;51.63;;
55312;SDS011;46892;45.668;11.756;2023-02-03T12:40:21;88.37;;;52.67;;
55312;SDS011;46892;45.668;11.756;2023-02-03T12:42:57;93.20;;;53.30;;
55312;SDS011;46892;45.668;11.756;2023-02-03T12:45:28;87.63;;;52.60;;
55312;SDS011;46892;45.668;11.756;2023-02-03T12:48:03;97.97;;;54.43;;
55312;SDS011;46892;45.668;11.756;2023-02-03T12:50:39;86.57;;;52.20;;
55312;SDS011;46892;45.668;11.756;2023-02-03T12:55:45;91.50;;;55.30;;
55312;SDS011;46892;45.668;11.756;2023-02-03T13:08:31;99.47;;;57.63;;
55312;SDS011;46892;45.668;11.756;2023-02-03T13:11:11;93.13;;;55.08;;
55312;SDS011;46892;45.668;11.756;2023-02-03T13:13:49;97.00;;;54.73;;
55312;SDS011;46892;45.668;11.756;2023-02-03T13:18:49;93.97;;;55.23;;
55312;SDS011;46892;45.668;11.756;2023-02-03T13:21:19;93.90;;;57.37;;
55312;SDS011;46892;45.668;11.756;2023-02-03T13:23:45;97.27;;;59.13;;
55312;SDS011;46892;45.668;11.756;2023-02-03T13:29:22;102.67;;;59.93;;
55312;SDS011;46892;45.668;11.756;2023-02-03T13:32:06;104.93;;;60.60;;
55312;SDS011;46892;45.668;11.756;2023-02-03T13:37:28;109.57;;;60.40;;
55312;SDS011;46892;45.668;11.756;2023-02-03T13:43:00;106.67;;;63.17;;
55312;SDS011;46892;45.668;11.756;2023-02-03T13:48:06;102.77;;;61.60;;
55312;SDS011;46892;45.668;11.756;2023-02-03T13:53:37;107.97;;;63.47;;
55312;SDS011;46892;45.668;11.756;2023-02-03T13:56:06;106.40;;;63.23;;
55312;SDS011;46892;45.668;11.756;2023-02-03T13:58:34;110.50;;;64.83;;
55312;SDS011;46892;45.668;11.756;2023-02-03T14:01:25;105.80;;;60.50;;
55312;SDS011;46892;45.668;11.756;2023-02-03T14:12:29;112.53;;;65.67;;
55312;SDS011;46892;45.668;11.756;2023-02-03T14:14:56;108.10;;;64.30;;
55312;SDS011;46892;45.668;11.756;2023-02-03T14:19:59;118.40;;;70.70;;
55312;SDS011;46892;45.668;11.756;2023-02-03T14:22:26;110.57;;;66.00;;
55312;SDS011;46892;45.668;11.756;2023-02-03T14:24:53;122.57;;;71.90;;
55312;SDS011;46892;45.668;11.756;2023-02-03T14:27:25;127.77;;;71.23;;
55312;SDS011;46892;45.668;11.756;2023-02-03T14:30:11;118.80;;;69.13;;
55312;SDS011;46892;45.668;11.756;2023-02-03T14:32:47;117.10;;;67.50;;
55312;SDS011;46892;45.668;11.756;2023-02-03T14:35:14;120.90;;;69.67;;
55312;SDS011;46892;45.668;11.756;2023-02-03T14:38:08;117.60;;;67.73;;
55312;SDS011;46892;45.668;11.756;2023-02-03T14:43:26;118.43;;;68.80;;
55312;SDS011;46892;45.668;11.756;2023-02-03T14:57:16;120.43;;;70.20;;
55312;SDS011;46892;45.668;11.756;2023-02-03T14:59:58;124.27;;;70.63;;
55312;SDS011;46892;45.668;11.756;2023-02-03T15:02:30;120.03;;;69.77;;
55312;SDS011;46892;45.668;11.756;2023-02-03T15:07:45;115.88;;;68.38;;
55312;SDS011;46892;45.668;11.756;2023-02-03T15:10:14;120.33;;;70.13;;
55312;SDS011;46892;45.668;11.756;2023-02-03T15:12:50;124.03;;;71.20;;
55312;SDS011;46892;45.668;11.756;2023-02-03T15:17:54;130.50;;;72.23;;
55312;SDS011;46892;45.668;11.756;2023-02-03T15:22:56;121.70;;;69.43;;
55312;SDS011;46892;45.668;11.756;2023-02-03T15:25:22;123.43;;;68.67;;
55312;SDS011;46892;45.668;11.756;2023-02-03T15:27:50;123.60;;;69.93;;
55312;SDS011;46892;45.668;11.756;2023-02-03T15:30:17;121.33;;;68.73;;
55312;SDS011;46892;45.668;11.756;2023-02-03T15:32:51;122.17;;;68.17;;
55312;SDS011;46892;45.668;11.756;2023-02-03T15:35:27;124.67;;;70.00;;
55312;SDS011;46892;45.668;11.756;2023-02-03T15:37:59;123.93;;;69.28;;
55312;SDS011;46892;45.668;11.756;2023-02-03T15:40:34;123.03;;;68.87;;
55312;SDS011;46892;45.668;11.756;2023-02-03T15:43:09;120.03;;;67.90;;
55312;SDS011;46892;45.668;11.756;2023-02-03T15:45:40;124.17;;;68.07;;
55312;SDS011;46892;45.668;11.756;2023-02-03T15:48:22;118.27;;;67.83;;
55312;SDS011;46892;45.668;11.756;2023-02-03T15:51:32;128.10;;;75.60;;
55312;SDS011;46892;45.668;11.756;2023-02-03T15:56:37;129.50;;;73.03;;
55312;SDS011;46892;45.668;11.756;2023-02-03T15:59:22;137.53;;;75.70;;
55312;SDS011;46892;45.668;11.756;2023-02-03T16:01:51;135.60;;;76.47;;
55312;SDS011;46892;45.668;11.756;2023-02-03T16:04:17;128.90;;;72.10;;
55312;SDS011;46892;45.668;11.756;2023-02-03T16:06:44;135.03;;;75.43;;
55312;SDS011;46892;45.668;11.756;2023-02-03T16:12:17;135.23;;;75.40;;
55312;SDS011;46892;45.668;11.756;2023-02-03T16:14:46;144.60;;;77.37;;
55312;SDS011;46892;45.668;11.756;2023-02-03T16:22:35;141.47;;;74.80;;
55312;SDS011;46892;45.668;11.756;2023-02-03T16:25:19;139.07;;;76.90;;
55312;SDS011;46892;45.668;11.756;2023-02-03T16:33:47;139.37;;;75.83;;
55312;SDS011;46892;45.668;11.756;2023-02-03T16:36:32;142.27;;;79.10;;
55312;SDS011;46892;45.668;11.756;2023-02-03T16:39:21;143.40;;;79.47;;
55312;SDS011;46892;45.668;11.756;2023-02-03T16:42:07;148.90;;;81.60;;
55312;SDS011;46892;45.668;11.756;2023-02-03T16:45:00;139.97;;;77.90;;
55312;SDS011;46892;45.668;11.756;2023-02-03T16:47:45;146.30;;;79.73;;
55312;SDS011;46892;45.668;11.756;2023-02-03T16:50:29;148.33;;;80.07;;
55312;SDS011;46892;45.668;11.756;2023-02-03T16:53:16;172.07;;;87.60;;